Time;durP1;ratioP1;P1;durP2;ratioP2;P2;SDS_P1;SDS_P2;PMS_P1;PMS_P2;Temp;Humidity;BMP_temperature;BMP_pressure;BME280_temperature;BME280_humidity;BME280_pressure;Samples;Min_cycle;Max_cycle;Signal;HPM_P1;HPM_P2
2021/12/11 00:02:31;;;;;;;86.10;42.40;;;;;;;-0.79;100.00;97868.84;102414;1314;70463;-75
2021/12/11 00:04:58;;;;;;;93.20;46.20;;;;;;;-0.74;100.00;97867.09;102450;1313;74368;-75
2021/12/11 00:07:28;;;;;;;81.90;41.30;;;;;;;-0.73;100.00;97868.45;102439;1314;61411;-75
2021/12/11 00:10:16;;;;;;;84.70;43.50;;;;;;;-0.75;100.00;97872.73;102605;1311;61331;-76
2021/12/11 00:12:48;;;;;;;84.10;41.00;;;;;;;-0.73;100.00;97878.20;102169;1313;74992;-75
2021/12/11 00:15:23;;;;;;;77.60;41.40;;;;;;;-0.69;100.00;97874.55;102503;1314;69450;-74
2021/12/11 00:17:58;;;;;;;80.70;40.40;;;;;;;-0.57;100.00;97877.41;102607;1314;72865;-76
2021/12/11 00:20:29;;;;;;;84.00;44.80;;;;;;;-0.50;100.00;97873.78;102464;1314;61246;-75
2021/12/11 00:22:56;;;;;;;88.60;45.30;;;;;;;-0.39;100.00;97875.65;102455;1314;61863;-75
2021/12/11 00:25:23;;;;;;;85.90;43.10;;;;;;;-0.35;100.00;97886.80;102413;1310;74792;-75
2021/12/11 00:27:52;;;;;;;92.40;45.40;;;;;;;-0.33;100.00;97895.62;102494;1310;70623;-75
2021/12/11 00:30:26;;;;;;;87.20;44.20;;;;;;;-0.35;100.00;97894.33;102458;1310;73869;-75
2021/12/11 00:33:09;;;;;;;85.40;45.30;;;;;;;-0.31;100.00;97896.05;102489;1314;61256;-75
2021/12/11 00:35:36;;;;;;;86.90;43.40;;;;;;;-0.30;100.00;97902.13;102404;1314;61300;-75
2021/12/11 00:38:17;;;;;;;91.10;44.50;;;;;;;-0.28;100.00;97904.83;102203;1313;73337;-75
2021/12/11 00:40:47;;;;;;;91.00;44.90;;;;;;;-0.27;100.00;97908.99;102386;1314;70426;-74
2021/12/11 00:43:20;;;;;;;84.10;42.80;;;;;;;-0.24;100.00;97913.59;102517;1314;73206;-74
2021/12/11 00:45:49;;;;;;;88.90;45.00;;;;;;;-0.23;100.00;97921.39;102440;1308;61331;-75
2021/12/11 00:48:21;;;;;;;83.70;42.90;;;;;;;-0.24;100.00;97921.96;102454;1314;61250;-75
2021/12/11 00:50:54;;;;;;;85.30;45.50;;;;;;;-0.25;100.00;97933.52;102492;1310;76419;-74
2021/12/11 00:53:31;;;;;;;90.30;46.20;;;;;;;-0.24;100.00;97933.84;102487;1311;70425;-75
2021/12/11 00:56:01;;;;;;;90.00;45.00;;;;;;;-0.27;100.00;97933.92;102439;1308;74476;-74
2021/12/11 00:58:37;;;;;;;93.40;45.20;;;;;;;-0.29;100.00;97946.77;102386;1314;61298;-74
2021/12/11 01:01:07;;;;;;;87.70;46.10;;;;;;;-0.34;100.00;97954.48;102523;1308;61312;-75
2021/12/11 01:03:43;;;;;;;88.60;47.10;;;;;;;-0.35;100.00;97958.20;102416;1313;73973;-75
2021/12/11 01:06:09;;;;;;;85.60;46.30;;;;;;;-0.38;100.00;97954.66;102499;1314;69317;-75
2021/12/11 01:08:40;;;;;;;94.20;49.90;;;;;;;-0.38;100.00;97960.40;102397;1314;61354;-75
2021/12/11 01:11:28;;;;;;;86.90;45.00;;;;;;;-0.39;100.00;97966.73;102635;1314;61741;-75
2021/12/11 01:14:19;;;;;;;86.40;45.10;;;;;;;-0.36;100.00;97968.70;102458;1314;61265;-74
2021/12/11 01:17:06;;;;;;;94.80;47.50;;;;;;;-0.34;100.00;97975.08;102509;1308;74632;-75
2021/12/11 01:19:38;;;;;;;86.50;45.10;;;;;;;-0.33;100.00;97978.69;102520;1314;69530;-75
2021/12/11 01:22:21;;;;;;;90.50;44.70;;;;;;;-0.31;100.00;97986.29;102606;1308;74451;-75
2021/12/11 01:24:52;;;;;;;92.10;46.50;;;;;;;-0.33;100.00;97989.16;102479;1308;61286;-74
2021/12/11 01:27:23;;;;;;;96.90;47.80;;;;;;;-0.36;100.00;97987.18;102590;1314;61221;-74
2021/12/11 01:29:56;;;;;;;94.80;47.10;;;;;;;-0.39;100.00;97984.34;102549;1309;73700;-75
2021/12/11 01:32:25;;;;;;;100.90;48.20;;;;;;;-0.39;100.00;97979.98;102647;1314;69266;-75
2021/12/11 01:34:52;;;;;;;97.50;47.00;;;;;;;-0.33;100.00;97984.11;102662;1314;72318;-74
2021/12/11 01:37:19;;;;;;;92.30;45.40;;;;;;;-0.33;100.00;97990.39;102665;1314;61272;-74
2021/12/11 01:39:49;;;;;;;94.70;46.00;;;;;;;-0.39;100.00;97994.33;102642;1311;61645;-75
2021/12/11 01:42:27;;;;;;;;;;;;;;;-0.46;100.00;97992.63;102814;1314;76279;-75
2021/12/11 01:44:56;;;;;;;99.70;45.60;;;;;;;-0.51;100.00;97992.48;102836;1310;69531;-75
2021/12/11 01:47:33;;;;;;;94.50;46.00;;;;;;;-0.54;100.00;97996.44;102929;1308;72111;-75
2021/12/11 01:50:23;;;;;;;107.20;49.90;;;;;;;-0.57;100.00;97997.77;103966;1314;61306;-76
2021/12/11 01:52:50;;;;;;;107.60;47.80;;;;;;;-0.60;100.00;98004.70;103353;1314;61317;-75
2021/12/11 01:55:19;;;;;;;102.50;48.60;;;;;;;-0.61;100.00;98000.91;104555;1314;60096;-75
2021/12/11 01:57:51;;;;;;;96.90;44.90;;;;;;;-0.59;100.00;98001.35;105798;1316;69340;-74
2021/12/11 02:00:30;;;;;;;101.00;49.00;;;;;;;-0.62;100.00;98011.57;105431;1316;73483;-74
2021/12/11 02:03:01;;;;;;;101.70;46.30;;;;;;;-0.64;100.00;98010.27;103835;1313;61341;-74
2021/12/11 02:05:30;;;;;;;96.30;46.50;;;;;;;-0.64;100.00;98014.44;103247;1314;60988;-74
2021/12/11 02:08:01;;;;;;;97.30;45.50;;;;;;;-0.62;100.00;98019.77;102626;1313;74211;-73
2021/12/11 02:10:34;;;;;;;103.00;48.60;;;;;;;-0.63;100.00;98027.33;102561;1311;70323;-75
2021/12/11 02:13:07;;;;;;;106.60;50.90;;;;;;;-0.66;100.00;98025.84;102616;1315;74293;-75
2021/12/11 02:15:39;;;;;;;117.30;52.70;;;;;;;-0.69;100.00;98030.98;102660;1314;61393;-74
2021/12/11 02:18:12;;;;;;;125.60;52.90;;;;;;;-0.70;100.00;98034.37;102601;1308;61327;-75
2021/12/11 02:20:48;;;;;;;112.50;52.10;;;;;;;-0.71;100.00;98034.40;102601;1308;74812;-73
2021/12/11 02:23:15;;;;;;;105.90;48.10;;;;;;;-0.73;100.00;98034.83;102401;1308;69526;-75
2021/12/11 02:25:47;;;;;;;107.90;48.70;;;;;;;-0.76;100.00;98033.02;102421;1308;73177;-75
2021/12/11 02:28:27;;;;;;;116.60;51.60;;;;;;;-0.81;100.00;98035.45;102415;1307;61453;-75
2021/12/11 02:31:05;;;;;;;126.10;55.40;;;;;;;-0.83;100.00;98040.97;102166;1315;61282;-74
2021/12/11 02:34:13;;;;;;;137.10;59.90;;;;;;;-0.85;100.00;98043.27;102475;1314;76168;-74
2021/12/11 02:37:13;;;;;;;138.00;57.10;;;;;;;-0.83;100.00;98050.36;101759;1317;70832;-74
2021/12/11 02:39:47;;;;;;;129.70;57.80;;;;;;;-0.84;100.00;98056.85;101783;1320;74305;-74
2021/12/11 02:42:19;;;;;;;154.50;65.20;;;;;;;-0.84;100.00;98061.22;101360;1320;61668;-75
2021/12/11 02:45:23;;;;;;;157.80;62.50;;;;;;;-0.83;100.00;98068.48;101790;1317;62223;-73
2021/12/11 02:47:59;;;;;;;164.00;68.90;;;;;;;-0.85;100.00;98075.20;101763;1317;75482;-74
2021/12/11 02:50:48;;;;;;;156.90;67.10;;;;;;;-0.86;100.00;98072.27;101776;1316;69396;-74
2021/12/11 02:53:27;;;;;;;166.40;70.20;;;;;;;-0.83;100.00;98080.19;101830;1316;74572;-75
2021/12/11 02:56:04;;;;;;;151.80;66.70;;;;;;;-0.81;100.00;98090.60;101813;1317;61476;-76
2021/12/11 02:58:35;;;;;;;157.10;63.90;;;;;;;-0.81;100.00;98098.77;101607;1319;61863;-75
2021/12/11 03:01:21;;;;;;;152.40;62.30;;;;;;;-0.82;100.00;98102.11;101752;1319;75279;-75
2021/12/11 03:03:59;;;;;;;151.10;61.80;;;;;;;-0.85;100.00;98107.28;101749;1316;69510;-73
2021/12/11 03:06:28;;;;;;;144.80;61.80;;;;;;;-0.87;100.00;98108.73;101811;1316;73818;-74
2021/12/11 03:08:58;;;;;;;154.90;66.60;;;;;;;-0.89;100.00;98106.00;101353;1320;61387;-74
2021/12/11 03:11:29;;;;;;;173.60;66.00;;;;;;;-0.89;100.00;98105.84;101824;1323;61401;-74
2021/12/11 03:13:58;;;;;;;167.20;70.00;;;;;;;-0.90;100.00;98106.38;102055;1314;76235;-74
2021/12/11 03:16:29;;;;;;;181.30;71.70;;;;;;;-0.92;100.00;98110.14;102445;1307;69311;-74
2021/12/11 03:18:57;;;;;;;154.30;65.00;;;;;;;-0.93;100.00;98110.34;102512;1308;74467;-74
2021/12/11 03:21:24;;;;;;;169.70;68.30;;;;;;;-0.95;100.00;98113.56;102471;1308;61345;-73
2021/12/11 03:23:53;;;;;;;165.30;72.00;;;;;;;-0.96;100.00;98109.95;102474;1310;61299;-74
2021/12/11 03:26:22;;;;;;;155.70;68.00;;;;;;;-0.92;100.00;98108.73;102617;1307;76490;-75
2021/12/11 03:28:49;;;;;;;158.90;70.30;;;;;;;-0.89;100.00;98113.16;102781;1311;70438;-75
2021/12/11 03:31:16;;;;;;;159.50;65.60;;;;;;;-0.92;100.00;98116.92;102790;1314;71686;-75
2021/12/11 03:33:47;;;;;;;164.60;67.90;;;;;;;-0.93;100.00;98121.16;102499;1311;61750;-73
2021/12/11 03:36:18;;;;;;;149.00;65.20;;;;;;;-0.95;100.00;98124.02;102605;1308;61308;-74
2021/12/11 03:39:02;;;;;;;152.60;63.80;;;;;;;-0.95;100.00;98129.59;102477;1310;76222;-74
2021/12/11 03:41:29;;;;;;;151.80;63.30;;;;;;;-0.97;100.00;98129.14;102208;1314;70566;-75
2021/12/11 03:43:55;;;;;;;140.60;59.10;;;;;;;-0.99;100.00;98133.21;102154;1308;73122;-74
2021/12/11 03:46:22;;;;;;;155.80;65.60;;;;;;;-1.03;100.00;98137.02;101674;1310;1003567;-74
2021/12/11 03:48:55;;;;;;;171.10;68.50;;;;;;;-1.06;100.00;98131.73;102401;1308;62302;-74
2021/12/11 03:51:30;;;;;;;165.80;67.90;;;;;;;-1.06;100.00;98133.10;102384;1310;75587;-75
2021/12/11 03:54:00;;;;;;;151.60;62.70;;;;;;;-1.08;100.00;98136.30;102187;1313;69732;-75
2021/12/11 03:56:27;;;;;;;144.40;62.30;;;;;;;-1.11;100.00;98140.77;102462;1308;73670;-75
2021/12/11 03:58:54;;;;;;;143.10;63.70;;;;;;;-1.15;100.00;98140.05;102388;1314;61774;-75
2021/12/11 04:01:34;;;;;;;157.00;65.20;;;;;;;-1.18;100.00;98143.81;102408;1308;61352;-74
2021/12/11 04:04:10;;;;;;;145.70;61.30;;;;;;;-1.19;100.00;98144.34;102391;1308;76503;-75
2021/12/11 04:06:37;;;;;;;156.70;64.40;;;;;;;-1.20;100.00;98148.77;102442;1308;69542;-75
2021/12/11 04:09:07;;;;;;;150.70;64.60;;;;;;;-1.20;100.00;98151.36;102420;1314;72142;-74
2021/12/11 04:11:35;;;;;;;147.10;65.50;;;;;;;-1.18;100.00;98160.17;102461;1307;61307;-75
2021/12/11 04:14:06;;;;;;;156.40;63.20;;;;;;;-1.18;100.00;98162.77;102462;1308;61343;-75
2021/12/11 04:16:34;;;;;;;154.30;62.80;;;;;;;-1.18;100.00;98158.61;102428;1308;75439;-75
2021/12/11 04:19:03;;;;;;;154.60;65.60;;;;;;;-1.18;100.00;98158.27;102006;1315;69684;-75
2021/12/11 04:21:31;;;;;;;140.80;61.60;;;;;;;-1.17;100.00;98155.77;102461;1308;73231;-76
2021/12/11 04:24:02;;;;;;;145.60;61.30;;;;;;;-1.17;100.00;98163.45;102458;1314;61323;-76
2021/12/11 04:26:28;;;;;;;156.40;63.70;;;;;;;-1.18;100.00;98160.54;102537;1308;61320;-74
2021/12/11 04:28:55;;;;;;;149.90;63.50;;;;;;;-1.20;100.00;98161.80;102571;1308;76209;-74
2021/12/11 04:31:26;;;;;;;139.70;61.10;;;;;;;-1.19;100.00;98163.35;102503;1311;70550;-75
2021/12/11 04:33:56;;;;;;;155.50;64.20;;;;;;;-1.20;100.00;98164.95;102438;1314;74584;-75
2021/12/11 04:36:25;;;;;;;;;;;;;;;-1.21;100.00;98169.50;102442;1307;61660;-75
2021/12/11 04:38:53;;;;;;;164.80;65.70;;;;;;;-1.21;100.00;98171.61;102390;1314;61735;-75
2021/12/11 04:41:28;;;;;;;160.20;66.10;;;;;;;-1.21;100.00;98169.86;102098;1315;169891;-75
2021/12/11 04:43:59;;;;;;;146.90;62.50;;;;;;;-1.22;100.00;98172.88;102149;1315;68617;-75
2021/12/11 04:46:25;;;;;;;155.60;65.10;;;;;;;-1.22;100.00;98175.46;102503;1308;73282;-75
2021/12/11 05:03:24;;;;;;;158.60;68.00;;;;;;;-1.16;100.00;98191.15;102103;1313;61426;-74
2021/12/11 05:10:55;;;;;;;167.80;77.10;;;;;;;-1.17;100.00;98202.66;102251;1313;69374;-75
2021/12/11 05:13:24;;;;;;;172.80;74.70;;;;;;;-1.16;100.00;98207.86;102441;1310;74467;-75
2021/12/11 05:15:54;;;;;;;162.10;75.10;;;;;;;-1.18;100.00;98207.42;101693;1308;1003452;-75
2021/12/11 05:18:25;;;;;;;167.80;74.00;;;;;;;-1.18;100.00;98210.39;102486;1314;61972;-75
2021/12/11 05:20:58;;;;;;;179.60;77.70;;;;;;;-1.20;100.00;98215.66;102466;1307;76187;-75
2021/12/11 05:23:26;;;;;;;182.80;79.20;;;;;;;-1.22;100.00;98221.30;102431;1314;68960;-75
2021/12/11 05:25:53;;;;;;;175.60;73.70;;;;;;;-1.25;100.00;98221.91;102402;1314;73413;-74
2021/12/11 05:28:20;;;;;;;166.10;75.10;;;;;;;-1.30;100.00;98222.27;102404;1307;61189;-76
2021/12/11 05:30:50;;;;;;;156.40;69.80;;;;;;;-1.38;100.00;98224.95;102435;1314;61173;-76
2021/12/11 05:33:20;;;;;;;164.60;72.70;;;;;;;-1.46;100.00;98221.91;102498;1307;76440;-74
2021/12/11 05:35:48;;;;;;;162.80;76.10;;;;;;;-1.55;100.00;98227.05;102449;1312;70609;-75
2021/12/11 05:38:18;;;;;;;159.40;73.20;;;;;;;-1.62;100.00;98231.27;102449;1308;73407;-75
2021/12/11 05:40:50;;;;;;;156.00;75.00;;;;;;;-1.67;100.00;98233.67;102110;1314;61744;-75
2021/12/11 05:43:17;;;;;;;161.30;76.10;;;;;;;-1.73;100.00;98234.55;102448;1308;61411;-75
2021/12/11 05:45:44;;;;;;;158.50;75.50;;;;;;;-1.78;100.00;98233.48;102458;1310;75473;-76
2021/12/11 05:48:12;;;;;;;164.00;74.50;;;;;;;-1.83;100.00;98237.80;102128;1314;69301;-75
2021/12/11 05:50:49;;;;;;;169.70;79.40;;;;;;;-1.88;100.00;98237.59;102385;1307;74319;-75
2021/12/11 05:53:17;;;;;;;161.40;75.20;;;;;;;-1.90;100.00;98236.79;102518;1308;61293;-75
2021/12/11 05:55:47;;;;;;;167.70;77.70;;;;;;;-1.95;100.00;98239.03;102589;1307;61231;-75
2021/12/11 05:58:24;;;;;;;182.20;80.40;;;;;;;-2.03;100.00;98240.30;102473;1307;75336;-76
2021/12/11 06:00:54;;;;;;;197.50;84.00;;;;;;;-2.10;100.00;98246.94;102376;1307;69677;-76
2021/12/11 06:03:21;;;;;;;200.10;89.50;;;;;;;-2.16;100.00;98247.29;102395;1314;73158;-77
2021/12/11 06:05:47;;;;;;;202.70;100.30;;;;;;;-2.23;100.00;98254.59;102401;1308;61282;-75
2021/12/11 06:08:14;;;;;;;211.50;96.80;;;;;;;-2.27;100.00;98260.12;102454;1308;61160;-76
2021/12/11 06:10:41;;;;;;;222.10;104.80;;;;;;;-2.32;100.00;98268.74;102462;1307;74277;-76
2021/12/11 06:13:09;;;;;;;216.10;103.80;;;;;;;-2.35;100.00;98272.33;102446;1308;70286;-77
2021/12/11 06:15:36;;;;;;;222.40;102.70;;;;;;;-2.34;100.00;98273.52;102406;1308;73725;-75
2021/12/11 06:18:04;;;;;;;207.00;94.30;;;;;;;-2.33;100.00;98269.81;102416;1307;61305;-76
2021/12/11 06:20:32;;;;;;;208.00;94.30;;;;;;;-2.34;100.00;98266.20;99611;1307;2002509;-75
2021/12/11 06:22:59;;;;;;;186.90;86.60;;;;;;;-2.37;100.00;98261.95;102470;1307;75259;-77
2021/12/11 06:25:29;;;;;;;183.60;82.70;;;;;;;-2.38;100.00;98265.09;102443;1308;69785;-75
2021/12/11 06:27:56;;;;;;;173.20;83.20;;;;;;;-2.37;100.00;98267.16;101172;1307;2003778;-75
2021/12/11 06:30:23;;;;;;;183.40;85.70;;;;;;;-2.36;100.00;98275.83;102404;1315;61304;-76
2021/12/11 06:32:54;;;;;;;192.80;83.40;;;;;;;-2.33;100.00;98284.11;102491;1308;61209;-76
2021/12/11 06:35:20;;;;;;;198.30;88.30;;;;;;;-2.32;100.00;98291.20;102411;1307;76456;-76
2021/12/11 06:37:47;;;;;;;265.00;111.80;;;;;;;-2.37;100.00;98294.83;102375;1307;61399;-76
2021/12/11 06:40:15;;;;;;;256.80;107.50;;;;;;;-2.42;100.00;98307.47;102280;1313;73536;-75
2021/12/11 06:42:41;;;;;;;258.40;106.60;;;;;;;-2.48;100.00;98305.02;102438;1314;61311;-76
2021/12/11 06:45:08;;;;;;;183.30;77.10;;;;;;;-2.50;100.00;98303.51;102462;1308;62202;-76
2021/12/11 06:47:35;;;;;;;174.10;77.90;;;;;;;-2.47;100.00;98306.55;102451;1308;76424;-76
2021/12/11 06:50:06;;;;;;;184.90;84.90;;;;;;;-2.43;100.00;98317.59;102507;1308;70189;-76
2021/12/11 06:52:33;;;;;;;170.90;83.30;;;;;;;-2.43;100.00;98327.48;102615;1311;73171;-76
2021/12/11 06:55:00;;;;;;;190.20;101.00;;;;;;;-2.42;100.00;98332.16;102533;1307;61293;-76
2021/12/11 06:57:27;;;;;;;160.20;83.50;;;;;;;-2.41;100.00;98340.16;102569;1308;61320;-76
2021/12/11 06:59:53;;;;;;;151.90;75.50;;;;;;;-2.38;100.00;98345.82;102451;1308;76174;-76
2021/12/11 07:02:20;;;;;;;179.20;90.20;;;;;;;-2.32;100.00;98350.17;102544;1308;61278;-76
2021/12/11 07:04:49;;;;;;;182.10;100.50;;;;;;;-2.29;100.00;98348.55;102483;1307;73299;-76
2021/12/11 07:07:23;;;;;;;173.60;91.00;;;;;;;-2.26;100.00;98353.84;102511;1308;61278;-76
2021/12/11 07:09:52;;;;;;;170.30;90.60;;;;;;;-2.19;100.00;98356.09;102524;1314;61308;-76
2021/12/11 07:12:20;;;;;;;181.00;93.00;;;;;;;-2.09;100.00;98364.20;102405;1307;77109;-77
2021/12/11 07:14:47;;;;;;;160.90;76.60;;;;;;;-2.02;100.00;98363.48;102481;1308;70440;-77
2021/12/11 07:17:15;;;;;;;167.00;75.30;;;;;;;-1.96;100.00;98371.50;102422;1307;75175;-76
2021/12/11 07:19:42;;;;;;;165.70;76.90;;;;;;;-1.92;100.00;98380.30;102473;1307;61280;-77
2021/12/11 07:22:09;;;;;;;151.90;75.90;;;;;;;-1.89;100.00;98389.79;102542;1307;61437;-77
2021/12/11 07:24:43;;;;;;;159.70;75.30;;;;;;;-1.84;100.00;98393.64;102542;1308;75932;-75
2021/12/11 07:27:11;;;;;;;171.50;77.90;;;;;;;-1.78;100.00;98397.84;102532;1307;69834;-76
2021/12/11 07:29:40;;;;;;;153.30;72.00;;;;;;;-1.70;100.00;98400.41;102409;1313;74348;-75
2021/12/11 07:32:08;;;;;;;132.90;65.20;;;;;;;-1.68;100.00;98398.80;102621;1308;61347;-76
2021/12/11 07:34:35;;;;;;;131.50;64.50;;;;;;;-1.65;100.00;98402.90;102584;1308;62279;-76
2021/12/11 07:37:03;;;;;;;123.30;62.50;;;;;;;-1.63;100.00;98403.88;102586;1307;75346;-77
2021/12/11 07:39:30;;;;;;;105.00;60.30;;;;;;;-1.59;100.00;98407.08;102397;1313;69322;-75
2021/12/11 07:41:57;;;;;;;112.90;59.10;;;;;;;-1.59;100.00;98410.56;102610;1307;74202;-76
2021/12/11 07:44:26;;;;;;;100.80;59.50;;;;;;;-1.62;100.00;98415.36;102619;1307;61335;-77
2021/12/11 07:46:55;;;;;;;107.10;58.70;;;;;;;-1.62;100.00;98417.09;102631;1307;61386;-77
2021/12/11 07:49:22;;;;;;;104.00;60.90;;;;;;;-1.53;100.00;98412.84;102379;1307;74132;-76
2021/12/11 07:51:50;;;;;;;108.30;60.90;;;;;;;-1.37;100.00;98405.42;102649;1308;70437;-76
2021/12/11 07:54:18;;;;;;;101.20;57.30;;;;;;;-1.20;100.00;98407.02;102770;1314;73484;-76
2021/12/11 07:56:45;;;;;;;99.90;60.40;;;;;;;-1.10;100.00;98413.54;102915;1310;61335;-76
2021/12/11 07:59:12;;;;;;;94.10;58.90;;;;;;;-1.00;100.00;98415.69;103043;1308;61312;-75
2021/12/11 08:01:43;;;;;;;94.60;56.60;;;;;;;-0.93;100.00;98421.59;103162;1308;74637;-76
2021/12/11 08:04:12;;;;;;;91.30;57.40;;;;;;;-0.85;100.00;98423.63;103177;1314;67870;-76
2021/12/11 08:06:40;;;;;;;99.80;60.40;;;;;;;-0.69;100.00;98424.86;103204;1314;73093;-77
2021/12/11 08:09:14;;;;;;;97.00;64.80;;;;;;;-0.59;100.00;98431.72;105323;1314;59164;-75
2021/12/11 08:11:41;;;;;;;105.00;65.20;;;;;;;-0.51;100.00;98442.29;105028;1316;61024;-75
2021/12/11 08:14:12;;;;;;;115.40;71.60;;;;;;;-0.44;100.00;98448.86;105556;1307;75441;-76
2021/12/11 08:16:49;;;;;;;102.70;67.10;;;;;;;-0.37;100.00;98453.02;105206;1313;69357;-78
2021/12/11 08:19:21;;;;;;;106.70;67.90;;;;;;;-0.33;100.00;98457.44;102853;1313;71678;-75
2021/12/11 08:21:55;;;;;;;106.20;66.60;;;;;;;-0.27;100.00;98459.31;102528;1308;61326;-75
2021/12/11 08:24:23;;;;;;;123.20;72.10;;;;;;;-0.20;100.00;98465.75;102516;1308;61211;-76
2021/12/11 08:26:52;;;;;;;121.90;71.60;;;;;;;-0.18;100.00;98472.67;102258;1316;75515;-75
2021/12/11 08:29:20;;;;;;;110.80;67.80;;;;;;;-0.13;100.00;98474.09;102567;1308;69375;-76
2021/12/11 08:31:50;;;;;;;117.70;78.50;;;;;;;-0.13;100.00;98479.48;102466;1308;71250;-76
2021/12/11 08:34:16;;;;;;;;;;;;;;;-0.12;100.00;98484.52;102271;1313;61473;-75
2021/12/11 08:36:43;;;;;;;132.10;85.40;;;;;;;-0.09;100.00;98486.00;102560;1308;61342;-76
2021/12/11 08:39:13;;;;;;;118.00;73.30;;;;;;;-0.05;100.00;98488.80;102540;1308;75292;-76
2021/12/11 08:41:41;;;;;;;;;;;;;;;0.03;100.00;98505.35;102992;1307;68739;-75
2021/12/11 08:44:12;;;;;;;118.90;72.50;;;;;;;0.07;100.00;98515.16;103208;1307;73582;-75
2021/12/11 08:46:44;;;;;;;112.00;69.90;;;;;;;0.12;100.00;98518.31;102919;1314;61421;-75
2021/12/11 08:49:16;;;;;;;109.60;69.20;;;;;;;0.12;100.00;98523.90;101974;1317;61326;-75
2021/12/11 08:51:51;;;;;;;114.00;69.70;;;;;;;0.11;100.00;98534.75;101878;1317;75508;-75
2021/12/11 08:54:19;;;;;;;117.60;70.50;;;;;;;0.14;100.00;98541.83;101876;1316;69419;-75
2021/12/11 08:56:47;;;;;;;127.90;77.40;;;;;;;0.19;100.00;98546.05;102090;1313;72490;-75
2021/12/11 08:59:17;;;;;;;169.20;85.30;;;;;;;0.17;100.00;98552.73;102186;1313;61377;-74
2021/12/11 09:02:00;;;;;;;146.70;80.60;;;;;;;0.15;100.00;98550.01;102130;1313;61372;-75
2021/12/11 09:04:35;;;;;;;332.00;128.40;;;;;;;0.10;100.00;98554.02;102068;1317;74986;-76
2021/12/11 09:07:08;;;;;;;152.80;80.10;;;;;;;0.13;100.00;98562.30;102069;1314;69761;-75
2021/12/11 09:09:41;;;;;;;201.80;100.30;;;;;;;0.17;100.00;98563.40;102093;1313;74273;-76
2021/12/11 09:12:42;;;;;;;142.20;85.20;;;;;;;0.12;99.73;98568.80;102094;1314;61386;-75
2021/12/11 09:15:20;;;;;;;114.80;72.20;;;;;;;0.10;99.94;98574.11;101444;1319;62065;-76
2021/12/11 09:17:52;;;;;;;124.50;76.40;;;;;;;0.14;99.83;98571.00;101586;1322;76475;-74
2021/12/11 09:20:27;;;;;;;116.70;73.10;;;;;;;0.23;99.96;98578.40;101062;1322;1003193;-74
2021/12/11 09:23:02;;;;;;;117.60;75.90;;;;;;;0.33;99.91;98577.38;101705;1326;72814;-75
2021/12/11 09:25:38;;;;;;;120.40;75.50;;;;;;;0.44;99.94;98582.27;101846;1317;61100;-76
2021/12/11 09:28:05;;;;;;;120.20;78.00;;;;;;;0.52;99.70;98583.23;101802;1317;61444;-77
2021/12/11 09:31:04;;;;;;;120.10;75.10;;;;;;;0.57;99.42;98587.96;101772;1316;61383;-75
2021/12/11 09:33:37;;;;;;;127.80;77.10;;;;;;;0.63;99.37;98590.39;101877;1317;70311;-75
2021/12/11 09:36:22;;;;;;;129.10;77.60;;;;;;;0.62;99.22;98596.70;101834;1317;73407;-74
2021/12/11 09:38:58;;;;;;;126.10;78.70;;;;;;;0.61;99.16;98600.39;101693;1320;61522;-77
2021/12/11 09:41:25;;;;;;;126.10;78.70;;;;;;;0.69;99.28;98606.46;101960;1316;61426;-74
2021/12/11 09:44:07;;;;;;;138.80;85.50;;;;;;;0.74;99.15;98609.95;101791;1317;61376;-74
2021/12/11 09:46:43;;;;;;;134.00;84.80;;;;;;;0.80;99.01;98608.71;101870;1316;67571;-75
2021/12/11 09:49:14;;;;;;;140.60;84.20;;;;;;;0.85;99.11;98613.41;101903;1317;73267;-75
2021/12/11 09:51:45;;;;;;;138.30;84.20;;;;;;;0.92;99.10;98622.27;102055;1317;61486;-75
2021/12/11 09:54:20;;;;;;;138.90;84.10;;;;;;;1.00;98.95;98620.80;102128;1308;61362;-75
2021/12/11 09:56:57;;;;;;;134.30;84.30;;;;;;;1.09;98.88;98625.74;102450;1308;75419;-78
2021/12/11 09:59:28;;;;;;;129.80;84.50;;;;;;;1.21;98.95;98627.77;102669;1308;69269;-76
2021/12/11 10:01:59;;;;;;;;;;;;;;;1.38;98.91;98625.60;102535;1308;73233;-79
2021/12/11 10:04:33;;;;;;;137.10;84.60;;;;;;;1.49;98.77;98626.27;102515;1308;61284;-74
2021/12/11 10:09:40;;;;;;;122.40;77.60;;;;;;;1.75;98.19;98622.30;102519;1307;76481;-73
2021/12/11 10:12:13;;;;;;;119.10;79.10;;;;;;;1.80;97.83;98632.13;102567;1308;67618;-83
2021/12/11 10:14:59;;;;;;;122.30;81.40;;;;;;;1.83;97.76;98635.84;102584;1308;74261;-75
2021/12/11 10:17:36;;;;;;;121.20;80.70;;;;;;;1.93;97.80;98627.23;102524;1307;61369;-79
2021/12/11 10:20:10;;;;;;;124.70;79.10;;;;;;;2.07;97.82;98629.34;102542;1307;62097;-74
2021/12/11 10:22:39;;;;;;;125.90;80.50;;;;;;;2.18;97.67;98634.33;102228;1314;74727;-76
2021/12/11 10:25:13;;;;;;;123.80;81.90;;;;;;;2.26;97.14;98636.83;102660;1308;70255;-77
2021/12/11 10:27:40;;;;;;;123.60;81.80;;;;;;;2.31;96.95;98637.17;102524;1308;71464;-78
2021/12/11 10:30:10;;;;;;;116.00;76.30;;;;;;;2.37;96.83;98634.83;102211;1316;61509;-77
2021/12/11 10:32:36;;;;;;;113.10;75.50;;;;;;;2.46;96.73;98637.85;102595;1308;61376;-79
2021/12/11 10:35:10;;;;;;;127.30;81.40;;;;;;;2.40;96.05;98639.27;102534;1307;76466;-76
2021/12/11 10:37:38;;;;;;;123.10;79.40;;;;;;;2.36;96.08;98635.73;102235;1313;69690;-75
2021/12/11 10:40:20;;;;;;;124.80;79.30;;;;;;;2.40;96.01;98635.59;102540;1312;74075;-76
2021/12/11 10:43:03;;;;;;;122.10;76.50;;;;;;;2.37;95.74;98639.72;102511;1314;61154;-77
2021/12/11 10:45:30;;;;;;;113.20;76.40;;;;;;;2.38;95.78;98648.45;102726;1308;61458;-84
2021/12/11 10:48:07;;;;;;;116.10;76.50;;;;;;;2.40;95.71;98646.10;102574;1308;75483;-79
2021/12/11 10:50:50;;;;;;;117.20;79.10;;;;;;;2.45;95.73;98642.58;102732;1315;67443;-83
2021/12/11 10:53:20;;;;;;;125.50;82.00;;;;;;;2.51;95.85;98642.16;102837;1308;73770;-77
2021/12/11 10:55:48;;;;;;;119.80;78.20;;;;;;;2.57;95.55;98642.63;102586;1308;61341;-83
2021/12/11 10:58:20;;;;;;;122.30;78.00;;;;;;;2.59;95.65;98652.03;102749;1314;61402;-81
2021/12/11 11:00:52;;;;;;;123.00;78.80;;;;;;;2.59;95.58;98658.67;102752;1308;76852;-83
2021/12/11 11:03:20;;;;;;;123.10;79.80;;;;;;;2.60;95.53;98657.76;102999;1307;68616;-88
2021/12/11 11:05:47;;;;;;;126.20;83.90;;;;;;;2.62;95.55;98657.85;102903;1307;74352;-85
2021/12/11 11:08:15;;;;;;;126.00;82.40;;;;;;;2.66;95.62;98663.48;102919;1314;61335;-83
2021/12/11 11:10:48;;;;;;;125.60;81.20;;;;;;;2.68;95.53;98665.16;102926;1314;61304;-78
2021/12/11 11:13:15;;;;;;;123.80;78.00;;;;;;;2.71;95.65;98665.92;102551;1308;76318;-77
2021/12/11 11:15:43;;;;;;;114.10;76.10;;;;;;;2.75;95.64;98668.04;102259;1314;69842;-78
2021/12/11 11:18:12;;;;;;;106.50;75.80;;;;;;;2.82;95.50;98669.70;102580;1314;73341;-76
2021/12/11 11:20:46;;;;;;;114.10;74.40;;;;;;;2.89;95.60;98672.38;102626;1308;61342;-78
2021/12/11 11:23:13;;;;;;;109.00;72.70;;;;;;;2.92;95.30;98669.98;102625;1307;61308;-76
2021/12/11 11:25:45;;;;;;;104.10;73.20;;;;;;;2.95;95.27;98674.61;102397;1308;75306;-77
2021/12/11 11:28:16;;;;;;;113.90;77.20;;;;;;;2.91;95.04;98674.76;102603;1307;70358;-78
2021/12/11 11:30:54;;;;;;;106.20;72.40;;;;;;;2.88;95.05;98674.88;102572;1310;73599;-76
2021/12/11 11:33:22;;;;;;;108.70;72.50;;;;;;;2.85;94.90;98678.66;102585;1308;61455;-76
2021/12/11 11:35:49;;;;;;;111.70;73.70;;;;;;;2.85;94.88;98677.64;102232;1313;61437;-76
2021/12/11 11:38:22;;;;;;;109.60;75.10;;;;;;;2.86;95.01;98683.20;102602;1308;75347;-76
2021/12/11 11:40:54;;;;;;;140.40;97.00;;;;;;;2.90;95.12;98690.95;102510;1308;70042;-79
2021/12/11 11:43:23;;;;;;;114.50;79.40;;;;;;;2.94;95.00;98691.83;102494;1313;72910;-78